createdAt,value
2022-09-14T00:02:29.345Z,98.50
2022-09-14T00:07:29.068Z,98.90
2022-09-14T00:12:29.008Z,99.10
2022-09-14T00:17:28.931Z,98.55
2022-09-14T00:22:28.867Z,98.39
2022-09-14T00:27:28.834Z,98.50
2022-09-14T00:32:28.739Z,98.80
2022-09-14T00:37:28.670Z,99.01
2022-09-14T00:42:28.602Z,99.30
2022-09-14T00:47:28.553Z,99.41
2022-09-14T00:52:28.475Z,99.16
2022-09-14T00:57:28.403Z,98.65
2022-09-14T01:02:28.403Z,98.65
2022-09-14T01:07:28.302Z,98.00
2022-09-14T01:12:28.201Z,97.69
2022-09-14T01:17:28.131Z,97.25
2022-09-14T01:22:28.094Z,96.54
2022-09-14T01:27:28.001Z,96.23
2022-09-14T01:32:27.942Z,96.34
2022-09-14T01:37:27.862Z,96.44
2022-09-14T01:42:27.827Z,95.63
2022-09-14T01:47:27.733Z,95.07
2022-09-14T01:52:27.683Z,95.38
2022-09-14T01:57:27.593Z,94.67
2022-09-14T02:02:27.666Z,94.78
2022-09-14T02:07:27.463Z,94.67
2022-09-14T02:12:27.422Z,94.92
2022-09-14T02:17:27.335Z,94.31
2022-09-14T02:22:27.282Z,94.72
2022-09-14T02:27:27.226Z,94.21
2022-09-14T02:32:27.176Z,94.31
2022-09-14T02:37:27.124Z,94.01
2022-09-14T02:42:27.315Z,93.60
2022-09-14T02:47:26.946Z,93.51
2022-09-14T02:52:26.896Z,93.81
2022-09-14T02:57:26.847Z,94.21
2022-09-14T03:02:26.822Z,93.71
2022-09-14T03:07:26.700Z,93.91
2022-09-14T03:12:26.620Z,93.76
2022-09-14T03:17:26.558Z,93.96
2022-09-14T03:22:26.497Z,94.37
2022-09-14T03:27:26.439Z,93.76
2022-09-14T03:32:26.369Z,94.42
2022-09-14T03:37:26.279Z,94.62
2022-09-14T03:42:26.230Z,94.51
2022-09-14T03:47:26.159Z,95.12
2022-09-14T03:52:26.083Z,93.87
2022-09-14T03:57:26.041Z,95.12
2022-09-14T04:02:26.013Z,95.43
2022-09-14T04:07:25.891Z,95.32
2022-09-14T04:12:25.862Z,95.63
2022-09-14T04:17:25.803Z,97.00
2022-09-14T04:22:25.867Z,94.78
2022-09-14T04:27:25.624Z,94.51
2022-09-14T04:32:25.551Z,94.62
2022-09-14T04:37:25.484Z,95.32
2022-09-14T04:42:25.425Z,95.07
2022-09-14T04:47:25.366Z,94.82
2022-09-14T04:52:25.345Z,94.98
2022-09-14T04:57:25.245Z,94.42
2022-09-14T05:02:25.260Z,94.47
2022-09-14T05:07:25.086Z,94.57
2022-09-14T05:12:25.033Z,94.67
2022-09-14T05:17:24.976Z,94.47
2022-09-14T05:22:24.895Z,94.47
2022-09-14T05:27:24.985Z,93.96
2022-09-14T05:32:24.776Z,94.07
2022-09-14T05:37:24.697Z,93.56
2022-09-14T05:42:24.638Z,93.76
2022-09-14T05:47:24.573Z,92.81
2022-09-14T05:52:24.516Z,92.41
2022-09-14T05:57:24.441Z,92.46
2022-09-14T06:02:24.574Z,92.02
2022-09-14T06:07:24.312Z,91.47
2022-09-14T06:12:24.291Z,91.06
2022-09-14T06:17:24.189Z,90.77
2022-09-14T06:22:24.143Z,90.82
2022-09-14T06:27:24.061Z,90.11
2022-09-14T06:32:23.999Z,89.11
2022-09-14T06:37:23.910Z,88.86
2022-09-14T06:42:23.849Z,88.26
2022-09-14T06:47:23.811Z,88.26
2022-09-14T06:52:23.704Z,87.96
2022-09-14T06:57:23.670Z,88.36
2022-09-14T07:02:23.615Z,88.90
2022-09-14T07:07:23.522Z,89.21
2022-09-14T07:12:23.443Z,89.51
2022-09-14T07:17:23.377Z,89.91
2022-09-14T07:22:23.356Z,89.06
2022-09-14T07:27:23.254Z,89.26
2022-09-14T07:32:23.167Z,88.26
2022-09-14T07:37:23.276Z,88.62
2022-09-14T07:42:23.097Z,88.22
2022-09-14T07:47:22.997Z,87.82
2022-09-14T07:52:22.917Z,88.96
2022-09-14T07:57:39.428Z,88.86
2022-09-14T08:02:23.850Z,88.92
2022-09-14T08:07:22.698Z,88.18
2022-09-14T08:12:22.633Z,88.88
2022-09-14T08:17:22.562Z,88.34
2022-09-14T08:22:22.531Z,88.03
2022-09-14T08:27:22.441Z,88.09
2022-09-14T08:32:22.396Z,89.10
2022-09-14T08:37:22.311Z,89.44
2022-09-14T08:42:22.411Z,88.94
2022-09-14T08:47:22.178Z,88.43
2022-09-14T08:52:23.004Z,89.84
2022-09-14T08:57:22.053Z,90.00
2022-09-14T09:02:22.002Z,89.66
2022-09-14T09:07:21.915Z,87.51
2022-09-14T09:12:21.867Z,85.56
2022-09-14T09:17:21.790Z,86.30
2022-09-14T09:22:21.716Z,88.84
2022-09-14T09:27:21.660Z,90.34
2022-09-14T09:32:21.606Z,89.99
2022-09-14T09:37:21.516Z,89.84
2022-09-14T09:42:21.459Z,87.99
2022-09-14T09:47:21.457Z,87.45
2022-09-14T09:52:21.328Z,87.06
2022-09-14T09:57:21.257Z,85.41
2022-09-14T10:02:21.265Z,83.87
2022-09-14T10:07:21.125Z,83.67
2022-09-14T10:12:21.069Z,84.37
2022-09-14T10:17:20.990Z,84.47
2022-09-14T10:22:25.720Z,84.88
2022-09-14T10:27:21.852Z,85.31
2022-09-14T10:32:20.812Z,85.92
2022-09-14T10:37:20.725Z,85.92
2022-09-14T10:42:20.681Z,86.62
2022-09-14T10:47:20.606Z,85.22
2022-09-14T10:52:20.712Z,85.56
2022-09-14T10:57:20.454Z,87.16
2022-09-14T11:02:20.585Z,87.06
2022-09-14T11:07:20.366Z,87.81
2022-09-14T11:12:20.256Z,88.31
2022-09-14T11:17:20.197Z,88.95
2022-09-14T11:22:20.156Z,90.46
2022-09-14T11:27:20.068Z,90.86
2022-09-14T11:32:21.785Z,89.76
2022-09-14T11:37:19.939Z,89.42
2022-09-14T11:42:19.868Z,89.31
2022-09-14T11:47:19.790Z,89.11
2022-09-14T11:52:19.730Z,89.51
2022-09-14T11:57:19.834Z,88.17
2022-09-14T12:02:19.653Z,88.32
2022-09-14T12:07:19.531Z,87.22
2022-09-14T12:12:19.476Z,86.78
2022-09-14T12:22:20.343Z,88.18
2022-09-14T12:27:19.265Z,87.58
2022-09-14T12:32:19.224Z,87.68
2022-09-14T12:37:19.146Z,86.04
2022-09-14T12:42:23.442Z,86.24
2022-09-14T12:47:20.047Z,85.80
2022-09-14T12:52:18.954Z,85.49
2022-09-14T12:57:18.879Z,84.49
2022-09-14T13:02:18.940Z,86.44
2022-09-14T13:07:18.784Z,85.69
2022-09-14T13:12:18.699Z,84.51
2022-09-14T13:17:18.652Z,83.65
2022-09-14T13:22:18.580Z,85.83
2022-09-14T13:27:18.502Z,87.18
2022-09-14T13:32:18.432Z,86.98
2022-09-14T13:37:18.403Z,89.83
2022-09-14T13:42:18.304Z,88.73
2022-09-14T13:47:18.255Z,88.87
2022-09-14T13:52:18.164Z,89.42
2022-09-14T13:57:18.103Z,90.72
2022-09-14T14:02:18.096Z,91.18
2022-09-14T14:07:18.003Z,90.37
2022-09-14T14:12:17.908Z,89.82
2022-09-14T14:17:17.826Z,90.32
2022-09-14T14:22:17.777Z,89.92
2022-09-14T14:27:17.701Z,90.46
2022-09-14T14:32:17.729Z,90.86
2022-09-14T14:37:17.579Z,90.77
2022-09-14T14:42:17.530Z,91.37
2022-09-14T14:47:17.450Z,92.47
2022-09-14T14:52:17.381Z,92.72
2022-09-14T14:57:17.311Z,93.57
2022-09-14T15:02:17.261Z,94.82
2022-09-14T15:07:17.192Z,95.07
2022-09-14T15:12:17.303Z,95.12
2022-09-14T15:17:17.080Z,95.87
2022-09-14T15:22:17.005Z,96.48
2022-09-14T15:27:16.912Z,96.48
2022-09-14T15:32:16.885Z,96.58
2022-09-14T15:37:16.807Z,96.37
2022-09-14T15:42:16.714Z,96.48
2022-09-14T15:47:16.675Z,96.68
2022-09-14T15:52:16.586Z,96.88
2022-09-14T15:57:16.536Z,97.08
2022-09-14T16:02:16.489Z,97.99
2022-09-14T16:07:16.406Z,98.69
2022-09-14T16:12:16.320Z,99.30
2022-09-14T16:17:16.308Z,98.54
2022-09-14T16:22:16.190Z,98.84
2022-09-14T16:27:16.109Z,99.59
2022-09-14T16:32:16.049Z,99.99
2022-09-14T16:37:15.980Z,99.99
2022-09-14T16:42:15.921Z,99.99
2022-09-14T16:47:15.867Z,99.99
2022-09-14T16:52:15.810Z,99.99
2022-09-14T16:57:15.722Z,99.99
2022-09-14T17:02:15.790Z,99.99
2022-09-14T17:07:15.585Z,99.99
2022-09-14T17:12:15.522Z,99.99
2022-09-14T17:17:15.627Z,99.99
2022-09-14T17:22:15.403Z,99.99
2022-09-14T17:27:15.384Z,99.19
2022-09-14T17:32:15.286Z,94.92
2022-09-14T17:37:15.184Z,95.77
2022-09-14T17:42:15.135Z,98.08
2022-09-14T17:47:15.107Z,99.33
2022-09-14T17:52:15.035Z,99.74
2022-09-14T17:57:14.990Z,99.99
2022-09-14T18:02:14.944Z,99.99
2022-09-14T18:07:14.819Z,99.99
2022-09-14T18:12:14.838Z,99.99
2022-09-14T18:17:14.992Z,98.99
2022-09-14T18:22:14.660Z,97.53
2022-09-14T18:27:14.518Z,98.88
2022-09-14T18:32:14.479Z,98.08
2022-09-14T18:37:14.409Z,98.73
2022-09-14T18:42:14.346Z,98.18
2022-09-14T18:47:14.260Z,97.23
2022-09-14T18:52:14.443Z,99.33
2022-09-14T18:57:14.284Z,98.53
2022-09-14T19:02:14.333Z,97.78
2022-09-14T19:07:14.069Z,96.62
2022-09-14T19:12:13.965Z,98.08
2022-09-14T19:17:14.057Z,97.47
2022-09-14T19:22:14.053Z,99.13
2022-09-14T19:27:13.757Z,99.28
2022-09-14T19:32:13.704Z,99.99
2022-09-14T19:37:13.638Z,99.99
2022-09-14T19:42:13.556Z,99.48
2022-09-14T19:47:13.505Z,99.84
2022-09-14T19:52:13.416Z,99.99
2022-09-14T19:57:13.387Z,99.99
2022-09-14T20:02:13.398Z,99.84
2022-09-14T20:07:13.343Z,99.53
2022-09-14T20:12:13.237Z,98.37
2022-09-14T20:17:13.145Z,98.82
2022-09-14T20:22:16.704Z,99.99
2022-09-14T20:27:13.178Z,99.99
2022-09-14T20:32:15.389Z,99.99
2022-09-14T20:37:12.880Z,99.99
2022-09-14T20:42:12.780Z,99.99
2022-09-14T20:47:12.713Z,99.99
2022-09-14T20:52:12.680Z,99.99
2022-09-14T20:57:12.722Z,99.99
2022-09-14T21:02:12.645Z,99.99
2022-09-14T21:07:12.603Z,99.99
2022-09-14T21:12:12.394Z,99.99
2022-09-14T21:17:12.330Z,99.99
2022-09-14T21:22:12.293Z,99.99
2022-09-14T21:27:12.198Z,99.78
2022-09-14T21:32:12.172Z,99.93
2022-09-14T21:37:12.100Z,99.93
2022-09-14T21:42:11.984Z,99.58
2022-09-14T21:47:11.958Z,98.36
2022-09-14T21:52:11.875Z,98.11
2022-09-14T21:57:11.785Z,99.07
2022-09-14T22:02:11.781Z,99.99
2022-09-14T22:07:11.674Z,99.99
2022-09-14T22:12:11.617Z,99.99
2022-09-14T22:17:11.542Z,99.99
2022-09-14T22:22:11.448Z,99.66
2022-09-14T22:27:11.406Z,99.99
2022-09-14T22:32:11.320Z,99.99
2022-09-14T22:37:11.437Z,99.97
2022-09-14T22:42:11.190Z,99.99
2022-09-14T22:47:11.181Z,99.99
2022-09-14T22:52:11.067Z,99.97
2022-09-14T22:57:11.036Z,99.66
2022-09-14T23:02:11.007Z,99.77
2022-09-14T23:07:10.895Z,99.66
2022-09-14T23:12:10.886Z,99.91
2022-09-14T23:17:10.750Z,99.99
2022-09-14T23:22:10.659Z,99.99
2022-09-14T23:27:10.588Z,99.99
2022-09-14T23:32:10.533Z,99.99
2022-09-14T23:37:10.466Z,99.99
2022-09-14T23:42:10.421Z,99.99
2022-09-14T23:47:10.332Z,99.99
2022-09-14T23:52:10.272Z,99.99
2022-09-14T23:57:10.245Z,99.99
